sensor_id;sensor_type;location;lat;lon;timestamp;P1;durP1;ratioP1;P2;durP2;ratioP2
11763;SDS011;5939;56.522;14.950;2023-12-20T00:00:52;5.70;;;1.63;;
11763;SDS011;5939;56.522;14.950;2023-12-20T00:03:17;3.97;;;1.40;;
11763;SDS011;5939;56.522;14.950;2023-12-20T00:05:43;4.73;;;1.30;;
11763;SDS011;5939;56.522;14.950;2023-12-20T00:08:09;5.90;;;1.33;;
11763;SDS011;5939;56.522;14.950;2023-12-20T00:10:34;2.00;;;1.23;;
11763;SDS011;5939;56.522;14.950;2023-12-20T00:13:00;2.33;;;1.50;;
11763;SDS011;5939;56.522;14.950;2023-12-20T00:15:26;1.73;;;1.10;;
11763;SDS011;5939;56.522;14.950;2023-12-20T00:17:51;3.87;;;1.57;;
11763;SDS011;5939;56.522;14.950;2023-12-20T00:20:17;3.00;;;1.30;;
11763;SDS011;5939;56.522;14.950;2023-12-20T00:22:42;4.27;;;1.30;;
11763;SDS011;5939;56.522;14.950;2023-12-20T00:25:08;2.73;;;1.20;;
11763;SDS011;5939;56.522;14.950;2023-12-20T00:27:34;3.23;;;1.30;;
11763;SDS011;5939;56.522;14.950;2023-12-20T00:30:00;2.73;;;1.33;;
11763;SDS011;5939;56.522;14.950;2023-12-20T00:32:25;4.90;;;1.30;;
11763;SDS011;5939;56.522;14.950;2023-12-20T00:34:51;6.60;;;1.50;;
11763;SDS011;5939;56.522;14.950;2023-12-20T00:37:16;5.70;;;1.70;;
11763;SDS011;5939;56.522;14.950;2023-12-20T00:39:42;3.67;;;1.10;;
11763;SDS011;5939;56.522;14.950;2023-12-20T00:42:07;3.30;;;1.33;;
11763;SDS011;5939;56.522;14.950;2023-12-20T00:44:33;2.27;;;1.30;;
11763;SDS011;5939;56.522;14.950;2023-12-20T00:46:59;5.90;;;1.53;;
11763;SDS011;5939;56.522;14.950;2023-12-20T00:49:24;4.87;;;1.40;;
11763;SDS011;5939;56.522;14.950;2023-12-20T00:51:50;5.33;;;1.40;;
11763;SDS011;5939;56.522;14.950;2023-12-20T00:54:17;5.30;;;1.33;;
11763;SDS011;5939;56.522;14.950;2023-12-20T00:56:43;3.77;;;1.40;;
11763;SDS011;5939;56.522;14.950;2023-12-20T00:59:09;3.20;;;1.40;;
11763;SDS011;5939;56.522;14.950;2023-12-20T01:01:34;2.37;;;1.00;;
11763;SDS011;5939;56.522;14.950;2023-12-20T01:04:00;4.20;;;1.50;;
11763;SDS011;5939;56.522;14.950;2023-12-20T01:06:26;3.83;;;1.33;;
11763;SDS011;5939;56.522;14.950;2023-12-20T01:08:51;3.03;;;1.13;;
11763;SDS011;5939;56.522;14.950;2023-12-20T01:11:17;2.13;;;1.20;;
11763;SDS011;5939;56.522;14.950;2023-12-20T01:13:42;3.80;;;1.30;;
11763;SDS011;5939;56.522;14.950;2023-12-20T01:16:11;3.07;;;1.40;;
11763;SDS011;5939;56.522;14.950;2023-12-20T01:18:37;3.10;;;1.30;;
11763;SDS011;5939;56.522;14.950;2023-12-20T01:21:04;4.17;;;1.67;;
11763;SDS011;5939;56.522;14.950;2023-12-20T01:23:30;2.30;;;1.13;;
11763;SDS011;5939;56.522;14.950;2023-12-20T01:25:56;3.53;;;1.13;;
11763;SDS011;5939;56.522;14.950;2023-12-20T01:28:24;3.27;;;1.20;;
11763;SDS011;5939;56.522;14.950;2023-12-20T01:30:50;2.43;;;1.23;;
11763;SDS011;5939;56.522;14.950;2023-12-20T01:33:16;4.70;;;1.47;;
11763;SDS011;5939;56.522;14.950;2023-12-20T01:35:41;4.73;;;1.27;;
11763;SDS011;5939;56.522;14.950;2023-12-20T01:38:07;3.23;;;1.20;;
11763;SDS011;5939;56.522;14.950;2023-12-20T01:40:33;2.40;;;1.20;;
11763;SDS011;5939;56.522;14.950;2023-12-20T01:43:04;3.70;;;1.30;;
11763;SDS011;5939;56.522;14.950;2023-12-20T01:45:33;3.20;;;1.53;;
11763;SDS011;5939;56.522;14.950;2023-12-20T01:47:59;5.83;;;1.40;;
11763;SDS011;5939;56.522;14.950;2023-12-20T01:50:26;1.83;;;1.30;;
11763;SDS011;5939;56.522;14.950;2023-12-20T01:52:53;3.80;;;1.30;;
11763;SDS011;5939;56.522;14.950;2023-12-20T01:55:24;5.37;;;1.30;;
11763;SDS011;5939;56.522;14.950;2023-12-20T01:57:51;2.33;;;1.10;;
11763;SDS011;5939;56.522;14.950;2023-12-20T02:00:16;2.33;;;1.27;;
11763;SDS011;5939;56.522;14.950;2023-12-20T02:02:43;4.67;;;1.13;;
11763;SDS011;5939;56.522;14.950;2023-12-20T02:05:10;4.43;;;1.27;;
11763;SDS011;5939;56.522;14.950;2023-12-20T02:07:37;3.30;;;1.30;;
11763;SDS011;5939;56.522;14.950;2023-12-20T02:10:02;2.77;;;1.10;;
11763;SDS011;5939;56.522;14.950;2023-12-20T02:12:31;5.83;;;1.50;;
11763;SDS011;5939;56.522;14.950;2023-12-20T02:14:57;4.30;;;1.47;;
11763;SDS011;5939;56.522;14.950;2023-12-20T02:17:23;6.90;;;1.50;;
11763;SDS011;5939;56.522;14.950;2023-12-20T02:19:49;3.27;;;1.47;;
11763;SDS011;5939;56.522;14.950;2023-12-20T02:22:15;4.87;;;1.20;;
11763;SDS011;5939;56.522;14.950;2023-12-20T02:24:40;3.77;;;1.30;;
11763;SDS011;5939;56.522;14.950;2023-12-20T02:27:06;6.40;;;1.70;;
11763;SDS011;5939;56.522;14.950;2023-12-20T02:29:33;4.00;;;1.30;;
11763;SDS011;5939;56.522;14.950;2023-12-20T02:31:59;2.97;;;1.50;;
11763;SDS011;5939;56.522;14.950;2023-12-20T02:34:25;3.27;;;1.47;;
11763;SDS011;5939;56.522;14.950;2023-12-20T02:36:50;2.57;;;1.30;;
11763;SDS011;5939;56.522;14.950;2023-12-20T02:39:16;2.13;;;1.47;;
11763;SDS011;5939;56.522;14.950;2023-12-20T02:41:43;4.20;;;1.30;;
11763;SDS011;5939;56.522;14.950;2023-12-20T02:44:08;4.03;;;1.53;;
11763;SDS011;5939;56.522;14.950;2023-12-20T02:46:34;2.60;;;1.40;;
11763;SDS011;5939;56.522;14.950;2023-12-20T02:49:00;4.00;;;1.50;;
11763;SDS011;5939;56.522;14.950;2023-12-20T02:51:25;5.07;;;1.60;;
11763;SDS011;5939;56.522;14.950;2023-12-20T02:53:51;2.20;;;1.30;;
11763;SDS011;5939;56.522;14.950;2023-12-20T02:56:17;4.50;;;1.20;;
11763;SDS011;5939;56.522;14.950;2023-12-20T02:58:42;4.50;;;1.50;;
11763;SDS011;5939;56.522;14.950;2023-12-20T03:01:08;6.83;;;1.73;;
11763;SDS011;5939;56.522;14.950;2023-12-20T03:03:33;4.37;;;1.50;;
11763;SDS011;5939;56.522;14.950;2023-12-20T03:05:59;4.47;;;1.37;;
11763;SDS011;5939;56.522;14.950;2023-12-20T03:08:25;2.07;;;1.67;;
11763;SDS011;5939;56.522;14.950;2023-12-20T03:10:51;3.00;;;1.07;;
11763;SDS011;5939;56.522;14.950;2023-12-20T03:13:16;4.00;;;1.40;;
11763;SDS011;5939;56.522;14.950;2023-12-20T03:15:42;6.50;;;1.50;;
11763;SDS011;5939;56.522;14.950;2023-12-20T03:18:07;2.57;;;1.30;;
11763;SDS011;5939;56.522;14.950;2023-12-20T03:20:33;3.13;;;1.20;;
11763;SDS011;5939;56.522;14.950;2023-12-20T03:23:02;4.30;;;1.40;;
11763;SDS011;5939;56.522;14.950;2023-12-20T03:25:28;2.50;;;1.20;;
11763;SDS011;5939;56.522;14.950;2023-12-20T03:27:53;5.33;;;2.07;;
11763;SDS011;5939;56.522;14.950;2023-12-20T03:30:19;4.43;;;1.53;;
11763;SDS011;5939;56.522;14.950;2023-12-20T03:32:45;3.70;;;1.30;;
11763;SDS011;5939;56.522;14.950;2023-12-20T03:35:11;2.43;;;1.00;;
11763;SDS011;5939;56.522;14.950;2023-12-20T03:37:37;5.60;;;1.50;;
11763;SDS011;5939;56.522;14.950;2023-12-20T03:40:03;6.37;;;1.53;;
11763;SDS011;5939;56.522;14.950;2023-12-20T03:42:29;2.40;;;1.20;;
11763;SDS011;5939;56.522;14.950;2023-12-20T03:44:54;5.23;;;1.40;;
11763;SDS011;5939;56.522;14.950;2023-12-20T03:47:20;4.70;;;1.47;;
11763;SDS011;5939;56.522;14.950;2023-12-20T03:49:45;2.40;;;1.40;;
11763;SDS011;5939;56.522;14.950;2023-12-20T03:52:11;3.87;;;1.60;;
11763;SDS011;5939;56.522;14.950;2023-12-20T03:54:37;2.17;;;1.37;;
11763;SDS011;5939;56.522;14.950;2023-12-20T03:57:03;2.70;;;1.30;;
11763;SDS011;5939;56.522;14.950;2023-12-20T03:59:29;3.40;;;1.30;;
11763;SDS011;5939;56.522;14.950;2023-12-20T04:01:55;4.60;;;1.40;;
11763;SDS011;5939;56.522;14.950;2023-12-20T04:04:20;1.90;;;1.10;;
11763;SDS011;5939;56.522;14.950;2023-12-20T04:06:46;3.93;;;1.27;;
11763;SDS011;5939;56.522;14.950;2023-12-20T04:09:12;4.37;;;1.27;;
11763;SDS011;5939;56.522;14.950;2023-12-20T04:11:38;2.93;;;1.10;;
11763;SDS011;5939;56.522;14.950;2023-12-20T04:14:03;4.87;;;1.40;;
11763;SDS011;5939;56.522;14.950;2023-12-20T04:16:32;3.13;;;1.20;;
11763;SDS011;5939;56.522;14.950;2023-12-20T04:18:58;2.13;;;1.10;;
11763;SDS011;5939;56.522;14.950;2023-12-20T04:21:24;2.00;;;1.10;;
11763;SDS011;5939;56.522;14.950;2023-12-20T04:23:49;2.07;;;1.20;;
11763;SDS011;5939;56.522;14.950;2023-12-20T04:26:15;3.37;;;1.60;;
11763;SDS011;5939;56.522;14.950;2023-12-20T04:28:41;3.10;;;1.10;;
11763;SDS011;5939;56.522;14.950;2023-12-20T04:31:07;4.53;;;1.43;;
11763;SDS011;5939;56.522;14.950;2023-12-20T04:33:32;4.40;;;1.80;;
11763;SDS011;5939;56.522;14.950;2023-12-20T04:35:58;2.07;;;1.27;;
11763;SDS011;5939;56.522;14.950;2023-12-20T04:38:25;3.53;;;1.50;;
11763;SDS011;5939;56.522;14.950;2023-12-20T04:40:50;2.90;;;1.23;;
11763;SDS011;5939;56.522;14.950;2023-12-20T04:43:16;3.30;;;1.47;;
11763;SDS011;5939;56.522;14.950;2023-12-20T04:45:42;2.27;;;1.17;;
11763;SDS011;5939;56.522;14.950;2023-12-20T04:48:08;3.57;;;1.30;;
11763;SDS011;5939;56.522;14.950;2023-12-20T04:50:33;4.03;;;1.50;;
11763;SDS011;5939;56.522;14.950;2023-12-20T04:52:59;4.20;;;1.50;;
11763;SDS011;5939;56.522;14.950;2023-12-20T04:55:25;8.27;;;1.43;;
11763;SDS011;5939;56.522;14.950;2023-12-20T04:57:51;3.27;;;1.60;;
11763;SDS011;5939;56.522;14.950;2023-12-20T05:00:17;3.83;;;1.70;;
11763;SDS011;5939;56.522;14.950;2023-12-20T05:02:42;3.60;;;1.33;;
11763;SDS011;5939;56.522;14.950;2023-12-20T05:05:08;3.37;;;1.60;;
11763;SDS011;5939;56.522;14.950;2023-12-20T05:07:34;1.97;;;1.20;;
11763;SDS011;5939;56.522;14.950;2023-12-20T05:10:00;4.03;;;1.70;;
11763;SDS011;5939;56.522;14.950;2023-12-20T05:12:25;2.60;;;1.40;;
11763;SDS011;5939;56.522;14.950;2023-12-20T05:14:51;6.60;;;1.50;;
11763;SDS011;5939;56.522;14.950;2023-12-20T05:17:17;4.43;;;1.67;;
11763;SDS011;5939;56.522;14.950;2023-12-20T05:19:52;3.10;;;1.70;;
11763;SDS011;5939;56.522;14.950;2023-12-20T05:22:18;5.13;;;1.13;;
11763;SDS011;5939;56.522;14.950;2023-12-20T05:24:45;4.90;;;1.40;;
11763;SDS011;5939;56.522;14.950;2023-12-20T05:27:11;2.47;;;1.30;;
11763;SDS011;5939;56.522;14.950;2023-12-20T05:29:36;7.57;;;1.60;;
11763;SDS011;5939;56.522;14.950;2023-12-20T05:32:03;2.33;;;1.23;;
11763;SDS011;5939;56.522;14.950;2023-12-20T05:34:30;3.90;;;1.23;;
11763;SDS011;5939;56.522;14.950;2023-12-20T05:36:56;4.80;;;1.80;;
11763;SDS011;5939;56.522;14.950;2023-12-20T05:39:22;4.90;;;1.30;;
11763;SDS011;5939;56.522;14.950;2023-12-20T05:41:48;3.43;;;1.60;;
11763;SDS011;5939;56.522;14.950;2023-12-20T05:44:13;8.60;;;1.60;;
11763;SDS011;5939;56.522;14.950;2023-12-20T05:46:39;4.37;;;1.57;;
11763;SDS011;5939;56.522;14.950;2023-12-20T05:49:05;5.13;;;1.40;;
11763;SDS011;5939;56.522;14.950;2023-12-20T05:51:31;4.33;;;1.50;;
11763;SDS011;5939;56.522;14.950;2023-12-20T05:53:58;4.57;;;1.80;;
11763;SDS011;5939;56.522;14.950;2023-12-20T05:56:23;4.37;;;1.73;;
11763;SDS011;5939;56.522;14.950;2023-12-20T05:58:49;3.57;;;1.70;;
11763;SDS011;5939;56.522;14.950;2023-12-20T06:01:15;4.07;;;1.60;;
11763;SDS011;5939;56.522;14.950;2023-12-20T06:03:42;7.23;;;1.83;;
11763;SDS011;5939;56.522;14.950;2023-12-20T06:06:09;3.80;;;1.70;;
11763;SDS011;5939;56.522;14.950;2023-12-20T06:08:35;5.37;;;2.63;;
11763;SDS011;5939;56.522;14.950;2023-12-20T06:11:01;3.87;;;1.80;;
11763;SDS011;5939;56.522;14.950;2023-12-20T06:13:28;4.73;;;1.70;;
11763;SDS011;5939;56.522;14.950;2023-12-20T06:15:54;4.17;;;1.53;;
11763;SDS011;5939;56.522;14.950;2023-12-20T06:18:20;5.73;;;1.80;;
11763;SDS011;5939;56.522;14.950;2023-12-20T06:20:46;3.73;;;1.30;;
11763;SDS011;5939;56.522;14.950;2023-12-20T06:23:11;5.47;;;1.60;;
11763;SDS011;5939;56.522;14.950;2023-12-20T06:25:37;7.03;;;1.73;;
11763;SDS011;5939;56.522;14.950;2023-12-20T06:28:03;7.07;;;2.17;;
11763;SDS011;5939;56.522;14.950;2023-12-20T06:30:29;4.27;;;1.43;;
11763;SDS011;5939;56.522;14.950;2023-12-20T06:32:54;5.00;;;1.60;;
11763;SDS011;5939;56.522;14.950;2023-12-20T06:35:22;4.70;;;1.77;;
11763;SDS011;5939;56.522;14.950;2023-12-20T06:37:48;9.17;;;1.87;;
11763;SDS011;5939;56.522;14.950;2023-12-20T06:40:13;7.67;;;1.83;;
11763;SDS011;5939;56.522;14.950;2023-12-20T06:42:39;5.97;;;1.90;;
11763;SDS011;5939;56.522;14.950;2023-12-20T06:45:05;3.67;;;1.47;;
11763;SDS011;5939;56.522;14.950;2023-12-20T06:47:30;4.50;;;1.60;;
11763;SDS011;5939;56.522;14.950;2023-12-20T06:49:56;5.33;;;1.63;;
11763;SDS011;5939;56.522;14.950;2023-12-20T06:52:22;3.77;;;1.87;;
11763;SDS011;5939;56.522;14.950;2023-12-20T06:54:47;2.00;;;1.53;;
11763;SDS011;5939;56.522;14.950;2023-12-20T06:57:13;3.83;;;1.43;;
11763;SDS011;5939;56.522;14.950;2023-12-20T06:59:39;3.17;;;1.90;;
11763;SDS011;5939;56.522;14.950;2023-12-20T07:02:09;5.30;;;1.57;;
11763;SDS011;5939;56.522;14.950;2023-12-20T07:04:38;2.30;;;1.43;;
11763;SDS011;5939;56.522;14.950;2023-12-20T07:07:05;3.27;;;1.30;;
11763;SDS011;5939;56.522;14.950;2023-12-20T07:09:30;6.53;;;1.60;;
11763;SDS011;5939;56.522;14.950;2023-12-20T07:11:56;3.57;;;1.50;;
11763;SDS011;5939;56.522;14.950;2023-12-20T07:14:21;3.20;;;1.47;;
11763;SDS011;5939;56.522;14.950;2023-12-20T07:16:47;3.17;;;1.60;;
11763;SDS011;5939;56.522;14.950;2023-12-20T07:19:13;3.80;;;1.50;;
11763;SDS011;5939;56.522;14.950;2023-12-20T07:21:38;3.23;;;1.53;;
11763;SDS011;5939;56.522;14.950;2023-12-20T07:24:04;4.27;;;1.50;;
11763;SDS011;5939;56.522;14.950;2023-12-20T07:26:30;6.90;;;1.80;;
11763;SDS011;5939;56.522;14.950;2023-12-20T07:28:55;3.63;;;1.60;;
11763;SDS011;5939;56.522;14.950;2023-12-20T07:31:21;4.33;;;1.50;;
11763;SDS011;5939;56.522;14.950;2023-12-20T07:33:49;5.40;;;1.50;;
11763;SDS011;5939;56.522;14.950;2023-12-20T07:36:14;6.97;;;1.87;;
11763;SDS011;5939;56.522;14.950;2023-12-20T07:38:40;5.07;;;1.40;;
11763;SDS011;5939;56.522;14.950;2023-12-20T07:41:08;3.30;;;1.50;;
11763;SDS011;5939;56.522;14.950;2023-12-20T07:43:38;3.13;;;1.20;;
11763;SDS011;5939;56.522;14.950;2023-12-20T07:46:04;3.97;;;1.57;;
11763;SDS011;5939;56.522;14.950;2023-12-20T07:48:31;3.90;;;1.40;;
11763;SDS011;5939;56.522;14.950;2023-12-20T07:50:56;4.03;;;1.40;;
11763;SDS011;5939;56.522;14.950;2023-12-20T07:53:22;6.00;;;1.97;;
11763;SDS011;5939;56.522;14.950;2023-12-20T07:55:48;3.60;;;1.20;;
11763;SDS011;5939;56.522;14.950;2023-12-20T07:58:13;1.83;;;1.30;;
11763;SDS011;5939;56.522;14.950;2023-12-20T08:00:39;2.97;;;1.20;;
11763;SDS011;5939;56.522;14.950;2023-12-20T08:03:04;4.77;;;1.20;;
11763;SDS011;5939;56.522;14.950;2023-12-20T08:05:30;4.57;;;1.30;;
11763;SDS011;5939;56.522;14.950;2023-12-20T08:07:56;2.43;;;1.10;;
11763;SDS011;5939;56.522;14.950;2023-12-20T08:10:21;5.03;;;1.30;;
11763;SDS011;5939;56.522;14.950;2023-12-20T08:12:47;2.07;;;1.20;;
11763;SDS011;5939;56.522;14.950;2023-12-20T08:15:13;6.00;;;1.37;;
11763;SDS011;5939;56.522;14.950;2023-12-20T08:17:39;4.30;;;1.20;;
11763;SDS011;5939;56.522;14.950;2023-12-20T08:20:05;3.23;;;1.50;;
11763;SDS011;5939;56.522;14.950;2023-12-20T08:22:31;3.50;;;1.23;;
11763;SDS011;5939;56.522;14.950;2023-12-20T08:24:57;2.80;;;1.27;;
11763;SDS011;5939;56.522;14.950;2023-12-20T08:27:22;3.20;;;1.20;;
11763;SDS011;5939;56.522;14.950;2023-12-20T08:29:48;3.07;;;1.37;;
11763;SDS011;5939;56.522;14.950;2023-12-20T08:32:15;3.13;;;1.17;;
11763;SDS011;5939;56.522;14.950;2023-12-20T08:34:41;1.20;;;0.90;;
11763;SDS011;5939;56.522;14.950;2023-12-20T08:37:07;2.17;;;0.90;;
11763;SDS011;5939;56.522;14.950;2023-12-20T08:39:32;4.33;;;1.00;;
11763;SDS011;5939;56.522;14.950;2023-12-20T08:41:58;2.20;;;1.23;;
11763;SDS011;5939;56.522;14.950;2023-12-20T08:44:24;2.20;;;1.03;;
11763;SDS011;5939;56.522;14.950;2023-12-20T08:46:50;1.50;;;0.80;;
11763;SDS011;5939;56.522;14.950;2023-12-20T08:49:15;3.33;;;1.17;;
11763;SDS011;5939;56.522;14.950;2023-12-20T08:51:41;1.53;;;0.90;;
11763;SDS011;5939;56.522;14.950;2023-12-20T08:54:07;1.30;;;1.00;;
11763;SDS011;5939;56.522;14.950;2023-12-20T08:56:33;2.60;;;1.17;;
11763;SDS011;5939;56.522;14.950;2023-12-20T08:58:59;2.53;;;1.17;;
11763;SDS011;5939;56.522;14.950;2023-12-20T09:01:24;2.40;;;1.20;;
11763;SDS011;5939;56.522;14.950;2023-12-20T09:03:50;1.03;;;0.90;;
11763;SDS011;5939;56.522;14.950;2023-12-20T09:06:16;2.20;;;1.10;;
11763;SDS011;5939;56.522;14.950;2023-12-20T09:08:41;2.20;;;0.90;;
11763;SDS011;5939;56.522;14.950;2023-12-20T09:11:07;2.43;;;0.90;;
11763;SDS011;5939;56.522;14.950;2023-12-20T09:13:33;2.50;;;1.20;;
11763;SDS011;5939;56.522;14.950;2023-12-20T09:15:58;3.00;;;0.90;;
11763;SDS011;5939;56.522;14.950;2023-12-20T09:18:24;1.40;;;0.80;;
11763;SDS011;5939;56.522;14.950;2023-12-20T09:20:50;3.37;;;1.00;;
11763;SDS011;5939;56.522;14.950;2023-12-20T09:23:16;2.60;;;0.87;;
11763;SDS011;5939;56.522;14.950;2023-12-20T09:25:43;2.07;;;1.10;;
11763;SDS011;5939;56.522;14.950;2023-12-20T09:28:09;2.30;;;1.00;;
11763;SDS011;5939;56.522;14.950;2023-12-20T09:30:35;1.70;;;0.90;;
11763;SDS011;5939;56.522;14.950;2023-12-20T09:33:04;0.90;;;0.80;;
11763;SDS011;5939;56.522;14.950;2023-12-20T09:35:31;2.07;;;1.00;;
11763;SDS011;5939;56.522;14.950;2023-12-20T09:37:57;1.90;;;1.00;;
11763;SDS011;5939;56.522;14.950;2023-12-20T09:40:23;5.10;;;0.90;;
11763;SDS011;5939;56.522;14.950;2023-12-20T09:42:58;1.00;;;0.80;;
11763;SDS011;5939;56.522;14.950;2023-12-20T09:45:28;3.60;;;0.90;;
11763;SDS011;5939;56.522;14.950;2023-12-20T09:47:56;2.47;;;1.00;;
11763;SDS011;5939;56.522;14.950;2023-12-20T09:50:23;0.67;;;0.67;;
11763;SDS011;5939;56.522;14.950;2023-12-20T09:52:52;1.47;;;0.80;;
11763;SDS011;5939;56.522;14.950;2023-12-20T09:55:21;2.30;;;0.90;;
11763;SDS011;5939;56.522;14.950;2023-12-20T09:57:47;1.07;;;0.70;;
11763;SDS011;5939;56.522;14.950;2023-12-20T10:00:13;2.07;;;0.80;;
11763;SDS011;5939;56.522;14.950;2023-12-20T10:02:42;1.00;;;0.80;;
11763;SDS011;5939;56.522;14.950;2023-12-20T10:05:16;2.77;;;0.97;;
11763;SDS011;5939;56.522;14.950;2023-12-20T10:07:46;1.20;;;0.70;;
11763;SDS011;5939;56.522;14.950;2023-12-20T10:10:13;1.43;;;0.83;;
11763;SDS011;5939;56.522;14.950;2023-12-20T10:12:38;2.07;;;0.97;;
11763;SDS011;5939;56.522;14.950;2023-12-20T10:15:05;1.53;;;0.80;;
11763;SDS011;5939;56.522;14.950;2023-12-20T10:17:31;1.53;;;0.90;;
11763;SDS011;5939;56.522;14.950;2023-12-20T10:19:57;1.80;;;0.80;;
11763;SDS011;5939;56.522;14.950;2023-12-20T10:22:23;1.00;;;0.80;;
11763;SDS011;5939;56.522;14.950;2023-12-20T10:24:49;1.87;;;0.90;;
11763;SDS011;5939;56.522;14.950;2023-12-20T10:27:15;1.77;;;0.77;;
11763;SDS011;5939;56.522;14.950;2023-12-20T10:29:44;0.53;;;0.53;;
11763;SDS011;5939;56.522;14.950;2023-12-20T10:32:26;0.63;;;0.63;;
11763;SDS011;5939;56.522;14.950;2023-12-20T10:34:53;0.93;;;0.70;;
11763;SDS011;5939;56.522;14.950;2023-12-20T10:37:20;1.33;;;0.70;;
11763;SDS011;5939;56.522;14.950;2023-12-20T10:39:55;0.70;;;0.70;;
11763;SDS011;5939;56.522;14.950;2023-12-20T10:42:22;0.70;;;0.70;;
11763;SDS011;5939;56.522;14.950;2023-12-20T10:44:51;1.20;;;0.80;;
11763;SDS011;5939;56.522;14.950;2023-12-20T10:47:18;0.90;;;0.70;;
11763;SDS011;5939;56.522;14.950;2023-12-20T10:49:44;1.00;;;0.60;;
11763;SDS011;5939;56.522;14.950;2023-12-20T10:52:12;0.70;;;0.70;;
11763;SDS011;5939;56.522;14.950;2023-12-20T10:54:41;0.70;;;0.70;;
11763;SDS011;5939;56.522;14.950;2023-12-20T10:57:07;0.90;;;0.60;;
11763;SDS011;5939;56.522;14.950;2023-12-20T10:59:33;0.60;;;0.50;;
11763;SDS011;5939;56.522;14.950;2023-12-20T11:02:02;0.50;;;0.50;;
11763;SDS011;5939;56.522;14.950;2023-12-20T11:07:32;0.77;;;0.67;;
11763;SDS011;5939;56.522;14.950;2023-12-20T11:10:16;0.60;;;0.60;;
11763;SDS011;5939;56.522;14.950;2023-12-20T11:15:25;0.50;;;0.50;;
11763;SDS011;5939;56.522;14.950;2023-12-20T11:17:55;0.93;;;0.47;;
11763;SDS011;5939;56.522;14.950;2023-12-20T11:20:22;1.50;;;0.73;;
11763;SDS011;5939;56.522;14.950;2023-12-20T11:22:52;0.40;;;0.40;;
11763;SDS011;5939;56.522;14.950;2023-12-20T11:25:19;1.27;;;0.50;;
11763;SDS011;5939;56.522;14.950;2023-12-20T11:27:47;0.77;;;0.50;;
11763;SDS011;5939;56.522;14.950;2023-12-20T11:30:47;0.60;;;0.60;;
11763;SDS011;5939;56.522;14.950;2023-12-20T11:33:20;0.50;;;0.50;;
11763;SDS011;5939;56.522;14.950;2023-12-20T11:35:50;0.60;;;0.60;;
11763;SDS011;5939;56.522;14.950;2023-12-20T11:38:17;1.40;;;0.70;;
11763;SDS011;5939;56.522;14.950;2023-12-20T11:40:47;0.50;;;0.50;;
11763;SDS011;5939;56.522;14.950;2023-12-20T11:43:26;0.50;;;0.50;;
11763;SDS011;5939;56.522;14.950;2023-12-20T11:45:55;0.40;;;0.40;;
11763;SDS011;5939;56.522;14.950;2023-12-20T11:48:20;2.30;;;0.70;;
11763;SDS011;5939;56.522;14.950;2023-12-20T11:50:47;1.27;;;0.50;;
11763;SDS011;5939;56.522;14.950;2023-12-20T11:53:13;3.50;;;0.60;;
11763;SDS011;5939;56.522;14.950;2023-12-20T11:55:38;0.67;;;0.53;;
11763;SDS011;5939;56.522;14.950;2023-12-20T11:58:04;1.67;;;0.53;;
11763;SDS011;5939;56.522;14.950;2023-12-20T12:00:30;0.50;;;0.50;;
11763;SDS011;5939;56.522;14.950;2023-12-20T12:02:56;1.23;;;0.50;;
11763;SDS011;5939;56.522;14.950;2023-12-20T12:05:23;0.60;;;0.60;;
11763;SDS011;5939;56.522;14.950;2023-12-20T12:07:48;1.10;;;0.60;;
11763;SDS011;5939;56.522;14.950;2023-12-20T12:10:14;0.40;;;0.40;;
11763;SDS011;5939;56.522;14.950;2023-12-20T12:12:40;1.13;;;0.60;;
11763;SDS011;5939;56.522;14.950;2023-12-20T12:15:06;1.90;;;0.67;;
11763;SDS011;5939;56.522;14.950;2023-12-20T12:17:32;1.00;;;0.67;;
11763;SDS011;5939;56.522;14.950;2023-12-20T12:20:02;0.53;;;0.53;;
11763;SDS011;5939;56.522;14.950;2023-12-20T12:22:31;0.90;;;0.60;;
11763;SDS011;5939;56.522;14.950;2023-12-20T12:24:58;0.63;;;0.50;;
11763;SDS011;5939;56.522;14.950;2023-12-20T12:27:34;1.23;;;0.50;;
11763;SDS011;5939;56.522;14.950;2023-12-20T12:30:03;0.93;;;0.60;;
11763;SDS011;5939;56.522;14.950;2023-12-20T12:32:32;1.50;;;0.70;;
11763;SDS011;5939;56.522;14.950;2023-12-20T12:34:57;0.87;;;0.83;;
11763;SDS011;5939;56.522;14.950;2023-12-20T12:37:23;4.40;;;0.90;;
11763;SDS011;5939;56.522;14.950;2023-12-20T12:39:49;1.03;;;0.80;;
11763;SDS011;5939;56.522;14.950;2023-12-20T12:42:15;1.27;;;0.63;;
11763;SDS011;5939;56.522;14.950;2023-12-20T12:44:40;1.07;;;0.70;;
11763;SDS011;5939;56.522;14.950;2023-12-20T12:47:06;0.67;;;0.67;;
11763;SDS011;5939;56.522;14.950;2023-12-20T12:49:33;2.77;;;0.90;;
11763;SDS011;5939;56.522;14.950;2023-12-20T12:51:58;0.60;;;0.60;;
11763;SDS011;5939;56.522;14.950;2023-12-20T12:54:24;1.90;;;1.27;;
11763;SDS011;5939;56.522;14.950;2023-12-20T12:56:49;0.90;;;0.70;;
11763;SDS011;5939;56.522;14.950;2023-12-20T12:59:17;2.67;;;0.80;;
11763;SDS011;5939;56.522;14.950;2023-12-20T13:01:43;2.30;;;0.93;;
11763;SDS011;5939;56.522;14.950;2023-12-20T13:04:09;1.67;;;0.80;;
11763;SDS011;5939;56.522;14.950;2023-12-20T13:06:37;2.33;;;0.83;;
11763;SDS011;5939;56.522;14.950;2023-12-20T13:09:03;1.07;;;0.87;;
11763;SDS011;5939;56.522;14.950;2023-12-20T13:11:30;2.20;;;0.90;;
11763;SDS011;5939;56.522;14.950;2023-12-20T13:13:56;3.60;;;1.27;;
11763;SDS011;5939;56.522;14.950;2023-12-20T13:16:22;2.03;;;0.60;;
11763;SDS011;5939;56.522;14.950;2023-12-20T13:18:49;1.07;;;0.90;;
11763;SDS011;5939;56.522;14.950;2023-12-20T13:21:15;1.60;;;0.50;;
11763;SDS011;5939;56.522;14.950;2023-12-20T13:23:41;0.80;;;0.70;;
11763;SDS011;5939;56.522;14.950;2023-12-20T13:26:07;1.60;;;0.70;;
11763;SDS011;5939;56.522;14.950;2023-12-20T13:28:33;3.73;;;1.00;;
11763;SDS011;5939;56.522;14.950;2023-12-20T13:30:59;2.97;;;0.77;;
11763;SDS011;5939;56.522;14.950;2023-12-20T13:33:24;2.37;;;0.77;;
11763;SDS011;5939;56.522;14.950;2023-12-20T13:35:50;1.10;;;0.70;;
11763;SDS011;5939;56.522;14.950;2023-12-20T13:38:16;0.80;;;0.70;;
11763;SDS011;5939;56.522;14.950;2023-12-20T13:40:42;1.10;;;0.90;;
11763;SDS011;5939;56.522;14.950;2023-12-20T13:43:08;0.97;;;0.60;;
11763;SDS011;5939;56.522;14.950;2023-12-20T13:45:36;2.17;;;0.90;;
11763;SDS011;5939;56.522;14.950;2023-12-20T13:48:01;0.93;;;0.70;;
11763;SDS011;5939;56.522;14.950;2023-12-20T13:50:27;1.20;;;0.63;;
11763;SDS011;5939;56.522;14.950;2023-12-20T13:52:53;1.37;;;0.77;;
11763;SDS011;5939;56.522;14.950;2023-12-20T13:55:18;0.60;;;0.60;;
11763;SDS011;5939;56.522;14.950;2023-12-20T13:57:47;1.80;;;0.80;;
11763;SDS011;5939;56.522;14.950;2023-12-20T14:00:13;0.77;;;0.77;;
11763;SDS011;5939;56.522;14.950;2023-12-20T14:02:42;0.73;;;0.70;;
11763;SDS011;5939;56.522;14.950;2023-12-20T14:05:11;0.70;;;0.70;;
11763;SDS011;5939;56.522;14.950;2023-12-20T14:07:37;1.10;;;0.70;;
11763;SDS011;5939;56.522;14.950;2023-12-20T14:10:03;1.97;;;0.97;;
11763;SDS011;5939;56.522;14.950;2023-12-20T14:12:29;2.83;;;0.87;;
11763;SDS011;5939;56.522;14.950;2023-12-20T14:14:54;1.93;;;1.00;;
11763;SDS011;5939;56.522;14.950;2023-12-20T14:17:21;2.53;;;1.20;;
11763;SDS011;5939;56.522;14.950;2023-12-20T14:19:47;2.70;;;1.40;;
11763;SDS011;5939;56.522;14.950;2023-12-20T14:22:12;1.17;;;0.80;;
11763;SDS011;5939;56.522;14.950;2023-12-20T14:24:41;2.90;;;1.40;;
11763;SDS011;5939;56.522;14.950;2023-12-20T14:27:07;1.30;;;1.00;;
11763;SDS011;5939;56.522;14.950;2023-12-20T14:29:34;2.27;;;1.17;;
11763;SDS011;5939;56.522;14.950;2023-12-20T14:32:00;2.47;;;1.33;;
11763;SDS011;5939;56.522;14.950;2023-12-20T14:34:28;3.43;;;1.40;;
11763;SDS011;5939;56.522;14.950;2023-12-20T14:36:53;4.83;;;1.50;;
11763;SDS011;5939;56.522;14.950;2023-12-20T14:39:19;4.67;;;1.27;;
11763;SDS011;5939;56.522;14.950;2023-12-20T14:41:45;2.53;;;1.53;;
11763;SDS011;5939;56.522;14.950;2023-12-20T14:44:10;3.90;;;1.57;;
11763;SDS011;5939;56.522;14.950;2023-12-20T14:46:36;3.07;;;1.10;;
11763;SDS011;5939;56.522;14.950;2023-12-20T14:49:02;2.57;;;1.40;;